Terminal Aerodrome Forecast
Issued by NWS

Home | Current Version | Previous Version | Text Only | Print | Product List | Glossary On
Versions: 1 2 3 4 5 6 7 8 9 10 11 12 13 14 15 16 17 18 19 20 21 22 23 24 25 26 27 28
000
FTUS41 KPHI 260549
TAFMIV
TAF
KMIV 260549Z 2606/2706 08005KT P6SM SCT025 OVC040
      TEMPO 2606/2610 BKN025
     FM261200 07005KT P6SM SCT015 OVC050
     FM261500 09006KT P6SM BKN020
     FM261800 13004KT P6SM BKN035
     FM270000 00000KT P6SM FEW025=

USA.gov is the U.S. government's official web portal to all federal, state and local government web resources and services.